This is the latest recevied weather packets stored in our database for station/object VE6EN. If no packets are shown the sender has not sent any weather packets the latest 1 day(s).
| Time | Temp. | Humidity | Pressure | Rain* | Wind** | Luminosity | Snow |
|---|---|---|---|---|---|---|---|
| 1778013604 | 9.44° C | 37% | 1017.6 hPa | 0 mm | 0.45 m/s, 219° | - | - |
| 1778012998 | 8.89° C | 37% | 1017.6 hPa | 0 mm | 1.34 m/s, 57° | - | - |
| 1778012399 | 8.33° C | 38% | 1017.6 hPa | 0 mm | 0.89 m/s, 35° | - | - |
| 1778011799 | 8.89° C | 38% | 1017.6 hPa | 0 mm | 0.89 m/s, 89° | - | - |
| 1778011209 | 8.33° C | 39% | 1017.8 hPa | 0 mm | 0.89 m/s, 78° | - | - |
| 1778010599 | 8.89° C | 35% | 1017.9 hPa | 0 mm | 1.34 m/s, 78° | - | - |
| 1778010001 | 8.89° C | 37% | 1017.9 hPa | 0 mm | 0.89 m/s, 67° | - | - |
| 1778009399 | 8.89° C | 36% | 1018 hPa | 0 mm | 0.89 m/s, 99° | - | - |
| 1778008799 | 8.89° C | 36% | 1018 hPa | 0 mm | 0.45 m/s, 30° | - | - |
| 1778008199 | 8.89° C | 37% | 1018 hPa | 0 mm | 0.45 m/s, 210° | - | - |
| 1778007598 | 8.89° C | 38% | 1018 hPa | 0 mm | 0.45 m/s, 74° | - | - |
| 1778006999 | 8.89° C | 37% | 1018.2 hPa | 0 mm | 1.34 m/s, 136° | - | - |
| 1778006399 | 8.89° C | 40% | 1018.2 hPa | 0 mm | 0.89 m/s, 88° | - | - |
| 1778005799 | 8.89° C | 40% | 1018.3 hPa | 0 mm | 0.89 m/s, 97° | - | - |
| 1778005199 | 8.33° C | 41% | 1018.2 hPa | 0 mm | 0.45 m/s, 200° | - | - |
| 1778004600 | 7.78° C | 44% | 1018.3 hPa | 0 mm | 0.45 m/s, 79° | - | - |
| 1778004000 | 7.22° C | 45% | 1018.2 hPa | 0 mm | 0.45 m/s, 263° | - | - |
| 1778003398 | 7.22° C | 44% | 1018.3 hPa | 0 mm | 0.45 m/s, 259° | - | - |
| 1778002800 | 7.22° C | 45% | 1018.4 hPa | 0 mm | 0.45 m/s, 128° | - | - |
| 1778002199 | 6.67° C | 50% | 1018.3 hPa | 0 mm | 0.45 m/s, 118° | - | - |
| 1778001599 | 5.56° C | 51% | 1018.4 hPa | 0 mm | 0.45 m/s, 84° | - | - |
| 1778001000 | 5.56° C | 50% | 1018.4 hPa | 0 mm | 0.45 m/s, 84° | - | - |
| 1778000399 | 5° C | 51% | 1018.3 hPa | 0 mm | 0.45 m/s, 254° | - | - |
| 1777999804 | 5° C | 53% | 1018.4 hPa | 0 mm | 0 m/s | - | - |
| 1777999199 | 4.44° C | 56% | 1018.4 hPa | 0 mm | 0.45 m/s, 270° | - | - |
* Rain latest hour (hover to see other rain measurements)
** Current wind speed in m/s (hover to see current wind gust speed)